Time;durP1;ratioP1;P1;durP2;ratioP2;P2;SDS_P1;SDS_P2;PMS_P1;PMS_P2;Temp;Humidity;BMP_temperature;BMP_pressure;BME280_temperature;BME280_humidity;BME280_pressure;Samples;Min_cycle;Max_cycle;Signal;HPM_P1;HPM_P2
2023/06/23 00:02:05;;;;;;;11.27;6.90;;;19.50;99.90;;;;;;5024871;28;20041;-69
2023/06/23 00:04:50;;;;;;;7.53;6.55;;;19.50;99.90;;;;;;5029457;28;20059;-69
2023/06/23 00:07:37;;;;;;;8.75;6.40;;;19.50;99.90;;;;;;5012855;28;20060;-69
2023/06/23 00:10:23;;;;;;;8.90;6.10;;;19.50;99.90;;;;;;5013239;28;20041;-69
2023/06/23 00:13:10;;;;;;;10.80;6.13;;;19.50;99.90;;;;;;5017321;28;20048;-69
2023/06/23 00:15:57;;;;;;;6.82;5.53;;;19.50;99.90;;;;;;5022401;28;20030;-69
2023/06/23 00:18:43;;;;;;;8.65;6.75;;;19.60;99.90;;;;;;5012072;28;20042;-67
2023/06/23 00:21:29;;;;;;;7.35;5.07;;;19.60;99.90;;;;;;5023346;28;20040;-67
2023/06/23 00:24:15;;;;;;;7.10;4.63;;;19.60;99.90;;;;;;5026613;28;20120;-67
2023/06/23 00:27:02;;;;;;;7.78;5.53;;;19.60;99.90;;;;;;5015054;28;20451;-68
2023/06/23 00:29:48;;;;;;;7.88;5.43;;;19.60;99.90;;;;;;5021030;28;20116;-67
2023/06/23 00:32:35;;;;;;;6.60;4.90;;;19.60;99.90;;;;;;5014673;28;20089;-67
2023/06/23 00:35:22;;;;;;;7.97;6.00;;;19.60;99.90;;;;;;5016254;28;20098;-67
2023/06/23 00:38:08;;;;;;;6.70;5.22;;;19.60;99.90;;;;;;5013342;28;20041;-67
2023/06/23 00:40:53;;;;;;;5.93;4.72;;;19.60;99.90;;;;;;5016856;28;20037;-67
2023/06/23 00:43:39;;;;;;;7.53;5.38;;;19.60;99.90;;;;;;5030622;28;20474;-67
2023/06/23 00:46:27;;;;;;;8.80;5.32;;;19.50;99.90;;;;;;5030433;28;20029;-67
2023/06/23 00:49:15;;;;;;;6.78;4.78;;;19.50;99.90;;;;;;5011598;28;20177;-67
2023/06/23 00:52:03;;;;;;;7.25;5.18;;;19.50;99.90;;;;;;5022488;28;20063;-67
2023/06/23 00:54:49;;;;;;;16.38;5.32;;;19.50;99.90;;;;;;5029853;28;20068;-67
2023/06/23 00:57:35;;;;;;;7.35;5.20;;;19.50;99.90;;;;;;5020648;28;20040;-67
2023/06/23 01:00:22;;;;;;;7.72;5.10;;;19.60;99.90;;;;;;5011590;28;20590;-67
2023/06/23 01:03:08;;;;;;;7.18;5.25;;;19.70;99.90;;;;;;5011204;28;20506;-68
2023/06/23 01:05:58;;;;;;;8.57;5.55;;;19.70;99.90;;;;;;5024709;28;20034;-67
2023/06/23 01:09:00;;;;;;;8.90;4.90;;;19.80;99.90;;;;;;5027085;28;20440;-67
2023/06/23 01:12:12;;;;;;;13.75;6.22;;;19.90;99.90;;;;;;5012284;28;20040;-68
2023/06/23 01:15:21;;;;;;;8.30;5.40;;;19.90;99.90;;;;;;5018434;28;20033;-62
2023/06/23 01:18:32;;;;;;;7.43;5.35;;;19.90;99.90;;;;;;5011802;28;20030;-63
2023/06/23 01:21:38;;;;;;;8.57;5.80;;;19.80;99.90;;;;;;5020434;28;20068;-63
2023/06/23 01:24:45;;;;;;;8.35;5.72;;;19.70;99.90;;;;;;5015717;28;20457;-63
2023/06/23 01:27:34;;;;;;;8.30;5.43;;;19.60;99.90;;;;;;5013909;28;20053;-62
2023/06/23 01:30:26;;;;;;;11.55;6.60;;;19.60;99.90;;;;;;5011523;28;20038;-62
2023/06/23 01:33:20;;;;;;;7.38;5.57;;;19.60;99.90;;;;;;5010717;28;20057;-62
2023/06/23 01:36:19;;;;;;;7.90;5.80;;;19.60;99.90;;;;;;5010579;28;20053;-62
2023/06/23 01:39:09;;;;;;;8.60;6.00;;;19.60;99.90;;;;;;5021120;28;20187;-62
2023/06/23 01:42:02;;;;;;;7.47;5.88;;;19.60;99.90;;;;;;5015876;28;20085;-62
2023/06/23 01:44:55;;;;;;;7.38;5.68;;;19.60;99.90;;;;;;5016958;28;20461;-62
2023/06/23 01:47:48;;;;;;;9.20;6.18;;;19.50;99.90;;;;;;5021758;28;20096;-63
2023/06/23 01:50:37;;;;;;;9.32;6.40;;;19.50;99.90;;;;;;5018571;28;20060;-63
2023/06/23 01:53:26;;;;;;;9.95;6.43;;;19.50;99.90;;;;;;5017456;28;20029;-63
2023/06/23 01:56:13;;;;;;;7.82;5.25;;;19.40;99.90;;;;;;5021284;28;20030;-63
2023/06/23 01:59:02;;;;;;;9.18;5.80;;;19.40;99.90;;;;;;5010830;28;20042;-63
2023/06/23 02:01:48;;;;;;;8.00;5.28;;;19.40;99.90;;;;;;5016959;28;20507;-63
2023/06/23 02:04:35;;;;;;;8.30;6.03;;;19.30;99.90;;;;;;5021848;28;20033;-63
2023/06/23 02:07:22;;;;;;;8.30;6.03;;;19.40;99.90;;;;;;5012143;28;20109;-63
2023/06/23 02:10:09;;;;;;;7.68;5.55;;;19.30;99.90;;;;;;5023686;28;20061;-63
2023/06/23 02:12:57;;;;;;;7.32;5.32;;;19.30;99.90;;;;;;5022162;28;20104;-63
2023/06/23 02:15:45;;;;;;;8.43;5.65;;;19.30;99.90;;;;;;5014874;28;20029;-63
2023/06/23 02:18:35;;;;;;;7.47;5.55;;;19.30;99.90;;;;;;5009053;28;20806;-63
2023/06/23 02:21:24;;;;;;;7.93;5.25;;;19.30;99.90;;;;;;5020609;28;20041;-63
2023/06/23 02:24:11;;;;;;;7.75;5.75;;;19.30;99.90;;;;;;5018839;28;20041;-63
2023/06/23 02:26:57;;;;;;;6.63;4.78;;;19.30;99.90;;;;;;5014335;28;20042;-63
2023/06/23 02:29:44;;;;;;;8.23;4.70;;;19.30;99.90;;;;;;5009351;28;20025;-63
2023/06/23 02:32:30;;;;;;;7.90;5.80;;;19.20;99.90;;;;;;5010524;28;20061;-64
2023/06/23 02:35:16;;;;;;;7.53;5.68;;;19.20;99.90;;;;;;5009960;28;20117;-63
2023/06/23 02:38:08;;;;;;;8.18;5.43;;;19.20;99.90;;;;;;5020954;28;20040;-64
2023/06/23 02:40:55;;;;;;;7.15;4.72;;;19.20;99.90;;;;;;5018594;28;20041;-64
2023/06/23 02:43:47;;;;;;;8.00;5.20;;;19.20;99.90;;;;;;5025523;28;20489;-64
2023/06/23 02:46:38;;;;;;;6.07;4.90;;;19.10;99.90;;;;;;5015803;28;20421;-64
2023/06/23 02:49:28;;;;;;;7.47;5.78;;;19.10;99.90;;;;;;5008761;28;20038;-63
2023/06/23 02:52:16;;;;;;;17.35;5.93;;;19.10;99.90;;;;;;5016079;28;20038;-64
2023/06/23 02:55:04;;;;;;;8.73;6.00;;;19.10;99.90;;;;;;5027604;28;20033;-63
2023/06/23 02:57:53;;;;;;;7.80;4.82;;;19.10;99.90;;;;;;5008744;28;20450;-64
2023/06/23 03:00:40;;;;;;;7.20;4.90;;;19.10;99.90;;;;;;5013900;28;20124;-64
2023/06/23 03:03:28;;;;;;;8.05;5.53;;;19.10;99.90;;;;;;5009360;28;20422;-64
2023/06/23 03:06:18;;;;;;;8.05;5.35;;;19.10;99.90;;;;;;5025142;28;20032;-64
2023/06/23 03:09:05;;;;;;;7.38;5.10;;;19.10;99.90;;;;;;5018583;28;20146;-64
2023/06/23 03:11:51;;;;;;;6.07;5.03;;;19.00;99.90;;;;;;5023541;28;20322;-64
2023/06/23 03:14:38;;;;;;;8.50;5.97;;;19.10;99.90;;;;;;5028656;28;20453;-64
2023/06/23 03:17:27;;;;;;;7.00;5.25;;;19.10;99.90;;;;;;5010157;28;20414;-63
2023/06/23 03:20:22;;;;;;;8.20;5.70;;;19.10;99.90;;;;;;5010412;28;20067;-64
2023/06/23 03:23:10;;;;;;;;;;;19.10;99.90;;;;;;5017293;28;20038;-64
2023/06/23 03:25:57;;;;;;;7.72;5.82;;;19.10;99.90;;;;;;5010373;28;20003;-64
2023/06/23 03:28:44;;;;;;;7.68;5.65;;;19.10;99.90;;;;;;5009423;28;20380;-64
2023/06/23 03:31:30;;;;;;;7.18;5.28;;;19.10;99.90;;;;;;5008907;28;20050;-64
2023/06/23 03:34:18;;;;;;;9.90;5.00;;;19.20;99.90;;;;;;5008610;28;20034;-64
2023/06/23 03:37:06;;;;;;;7.10;5.80;;;19.20;99.90;;;;;;5019969;28;20045;-64
2023/06/23 03:39:59;;;;;;;7.30;5.70;;;19.30;99.90;;;;;;5009827;28;20465;-68
2023/06/23 03:42:55;;;;;;;11.43;4.93;;;19.30;99.90;;;;;;5009400;28;20491;-67
2023/06/23 03:45:43;;;;;;;8.57;6.10;;;19.40;99.90;;;;;;5012574;28;20121;-67
2023/06/23 03:48:32;;;;;;;6.60;5.32;;;19.40;99.90;;;;;;5019404;28;20080;-67
2023/06/23 03:51:20;;;;;;;6.72;5.10;;;19.50;99.90;;;;;;5014792;28;20095;-67
2023/06/23 03:54:08;;;;;;;6.85;5.10;;;19.50;99.90;;;;;;5029096;28;20067;-73
2023/06/23 03:56:56;;;;;;;6.35;5.00;;;19.50;99.90;;;;;;5014080;28;20065;-73
2023/06/23 03:59:44;;;;;;;7.53;5.30;;;19.60;99.90;;;;;;5011959;28;20398;-73
2023/06/23 04:02:32;;;;;;;6.18;4.53;;;19.60;99.90;;;;;;5019577;28;20564;-72
2023/06/23 04:05:20;;;;;;;8.38;5.40;;;19.60;99.90;;;;;;5021111;28;20044;-72
2023/06/23 04:08:09;;;;;;;6.97;5.50;;;19.60;99.90;;;;;;5014038;28;20029;-72
2023/06/23 04:10:57;;;;;;;8.20;5.90;;;19.60;99.90;;;;;;5030892;28;20083;-71
2023/06/23 04:13:44;;;;;;;8.95;5.70;;;19.60;99.90;;;;;;5030993;28;20040;-72
2023/06/23 04:16:34;;;;;;;9.05;6.25;;;19.60;99.90;;;;;;5020891;28;20597;-72
2023/06/23 04:19:27;;;;;;;7.60;5.28;;;19.60;99.90;;;;;;5016579;28;20120;-71
2023/06/23 04:22:17;;;;;;;7.75;5.70;;;19.60;99.90;;;;;;5014517;28;20049;-72
2023/06/23 04:25:05;;;;;;;6.57;5.05;;;19.60;99.90;;;;;;5011372;28;20037;-72
2023/06/23 04:27:56;;;;;;;7.93;5.70;;;19.60;99.90;;;;;;5015510;28;20127;-71
2023/06/23 04:30:42;;;;;;;9.23;6.70;;;19.60;99.90;;;;;;5023777;28;20043;-71
2023/06/23 04:33:28;;;;;;;11.63;5.72;;;19.60;99.90;;;;;;5014644;28;20141;-71
2023/06/23 04:36:18;;;;;;;8.52;5.80;;;19.70;99.90;;;;;;5015008;28;20527;-71
2023/06/23 04:39:15;;;;;;;8.35;5.80;;;19.70;99.90;;;;;;5011976;28;20044;-71
2023/06/23 04:42:06;;;;;;;8.48;5.93;;;19.70;99.90;;;;;;5015857;28;20049;-71
2023/06/23 04:44:58;;;;;;;7.82;5.90;;;19.70;99.90;;;;;;5023942;28;20405;-74
2023/06/23 04:47:51;;;;;;;7.50;5.93;;;19.80;99.90;;;;;;5012522;28;20053;-68
2023/06/23 04:50:39;;;;;;;12.93;7.53;;;19.80;99.90;;;;;;5015928;28;20025;-69
2023/06/23 04:53:42;;;;;;;8.38;5.55;;;19.70;99.90;;;;;;5027085;28;20295;-71
2023/06/23 04:56:33;;;;;;;9.45;6.60;;;19.70;99.90;;;;;;5017520;28;20041;-70
2023/06/23 04:59:21;;;;;;;9.27;6.32;;;19.70;99.90;;;;;;5029832;28;20033;-69
2023/06/23 05:02:10;;;;;;;8.68;6.38;;;19.70;99.90;;;;;;5030238;28;20056;-72
2023/06/23 05:04:57;;;;;;;13.07;7.45;;;19.70;99.90;;;;;;5027933;28;20432;-67
2023/06/23 05:07:45;;;;;;;13.90;7.15;;;19.70;99.90;;;;;;5026048;28;20117;-67
2023/06/23 05:10:31;;;;;;;9.75;7.18;;;19.70;99.90;;;;;;5016724;28;20037;-67
2023/06/23 05:13:19;;;;;;;11.45;6.82;;;19.70;99.90;;;;;;5019483;28;20076;-67
2023/06/23 05:16:10;;;;;;;10.82;7.10;;;19.70;99.90;;;;;;5015684;28;20053;-67
2023/06/23 05:18:59;;;;;;;12.65;7.32;;;19.70;99.90;;;;;;5030205;28;20029;-68
2023/06/23 05:21:45;;;;;;;10.73;7.32;;;19.70;99.90;;;;;;5022241;28;20042;-67
2023/06/23 05:24:32;;;;;;;10.07;7.75;;;19.70;99.90;;;;;;5030300;28;20041;-67
2023/06/23 05:27:21;;;;;;;13.25;8.80;;;19.70;99.90;;;;;;5029975;28;20033;-67
2023/06/23 05:30:08;;;;;;;10.35;7.03;;;19.70;99.90;;;;;;5016833;28;20364;-67
2023/06/23 05:32:57;;;;;;;9.70;7.68;;;19.70;99.90;;;;;;5017059;28;20120;-67
2023/06/23 05:35:45;;;;;;;11.07;7.30;;;19.70;99.90;;;;;;5017887;28;20486;-67
2023/06/23 05:38:31;;;;;;;10.43;6.43;;;19.70;99.90;;;;;;5030109;28;20029;-65
2023/06/23 05:41:18;;;;;;;10.82;7.93;;;19.80;99.90;;;;;;5020393;28;20729;-66
2023/06/23 05:44:04;;;;;;;8.63;7.13;;;19.80;99.90;;;;;;5022102;28;20411;-66
2023/06/23 05:46:53;;;;;;;11.52;7.53;;;19.80;99.90;;;;;;5011422;28;20624;-66
2023/06/23 05:49:42;;;;;;;9.77;7.05;;;19.80;99.90;;;;;;5012420;28;20034;-65
2023/06/23 05:52:31;;;;;;;9.88;6.93;;;19.80;99.90;;;;;;5021505;28;20406;-65
2023/06/23 05:55:19;;;;;;;11.48;8.10;;;19.80;99.90;;;;;;5024064;28;20082;-65
2023/06/23 05:58:09;;;;;;;14.73;7.55;;;19.80;99.90;;;;;;5022100;28;20021;-66
2023/06/23 06:00:59;;;;;;;10.63;7.82;;;19.80;99.90;;;;;;5025753;28;20398;-66
2023/06/23 06:04:00;;;;;;;11.40;7.40;;;19.80;99.90;;;;;;5030571;28;20073;-65
2023/06/23 06:06:48;;;;;;;10.00;7.95;;;19.80;99.90;;;;;;5022146;28;20033;-71
2023/06/23 06:09:36;;;;;;;8.80;7.28;;;19.80;99.90;;;;;;5023089;28;20401;-71
2023/06/23 06:12:24;;;;;;;10.85;7.95;;;19.80;99.90;;;;;;5023406;28;20030;-71
2023/06/23 06:15:10;;;;;;;10.70;7.75;;;19.70;99.90;;;;;;5028429;28;20037;-71
2023/06/23 06:18:01;;;;;;;10.20;6.97;;;19.80;99.90;;;;;;5011493;28;20402;-71
2023/06/23 06:20:48;;;;;;;9.32;6.82;;;19.80;99.90;;;;;;5014368;28;20555;-71
2023/06/23 06:23:37;;;;;;;12.75;7.45;;;19.80;99.90;;;;;;5020088;28;20076;-71
2023/06/23 06:26:24;;;;;;;9.77;7.32;;;19.80;99.90;;;;;;5009778;28;20030;-71
2023/06/23 06:29:13;;;;;;;11.20;8.18;;;19.80;99.90;;;;;;5009537;28;20092;-72
2023/06/23 06:32:03;;;;;;;13.77;7.47;;;19.90;99.90;;;;;;5023540;28;20622;-71
2023/06/23 06:34:51;;;;;;;10.27;7.57;;;20.00;99.90;;;;;;5019358;28;20033;-72
2023/06/23 06:37:40;;;;;;;9.57;7.38;;;20.00;99.90;;;;;;5023594;28;20033;-73
2023/06/23 06:40:27;;;;;;;10.73;7.95;;;20.00;99.90;;;;;;5025086;28;20492;-70
2023/06/23 06:43:13;;;;;;;13.35;8.50;;;20.10;99.90;;;;;;5021064;28;20528;-70
2023/06/23 06:46:01;;;;;;;10.43;7.78;;;20.10;99.90;;;;;;5017498;28;20022;-71
2023/06/23 06:48:49;;;;;;;12.52;8.40;;;20.10;99.90;;;;;;5019569;28;20037;-71
2023/06/23 06:51:37;;;;;;;10.30;8.00;;;20.10;99.90;;;;;;5017953;28;20037;-66
2023/06/23 06:54:24;;;;;;;16.88;8.65;;;20.20;99.90;;;;;;5010219;28;20048;-66
2023/06/23 06:57:10;;;;;;;13.02;9.00;;;20.30;99.90;;;;;;5023494;28;20105;-66
2023/06/23 06:59:56;;;;;;;10.48;8.48;;;20.30;99.90;;;;;;5009101;28;20602;-66
2023/06/23 07:02:43;;;;;;;12.93;9.73;;;20.30;99.90;;;;;;5027790;28;20819;-67
2023/06/23 07:05:29;;;;;;;11.98;8.48;;;20.40;99.90;;;;;;5016526;28;20323;-67
2023/06/23 07:08:15;;;;;;;12.68;9.13;;;20.40;99.90;;;;;;5007507;28;20407;-66
2023/06/23 07:11:01;;;;;;;10.57;8.27;;;20.40;99.90;;;;;;5012435;28;20037;-66
2023/06/23 07:13:47;;;;;;;11.82;7.70;;;20.50;99.90;;;;;;5021417;28;20083;-67
2023/06/23 07:16:33;;;;;;;11.90;8.88;;;20.50;99.90;;;;;;5009955;28;20056;-66
2023/06/23 07:19:19;;;;;;;11.02;8.50;;;20.50;99.90;;;;;;5009841;28;20060;-66
2023/06/23 07:22:05;;;;;;;10.35;8.15;;;20.50;99.90;;;;;;5009740;28;20034;-67
2023/06/23 07:24:51;;;;;;;11.45;7.82;;;20.50;99.90;;;;;;5012124;28;20029;-67
2023/06/23 07:27:37;;;;;;;17.65;8.55;;;20.50;99.90;;;;;;5022133;28;20128;-67
2023/06/23 07:30:23;;;;;;;12.05;8.82;;;20.50;99.90;;;;;;5021820;28;20033;-67
2023/06/23 07:33:09;;;;;;;13.45;8.93;;;20.60;99.90;;;;;;5015117;28;20041;-67
2023/06/23 07:35:55;;;;;;;10.85;8.27;;;20.60;99.90;;;;;;5010987;28;20180;-67
2023/06/23 07:38:41;;;;;;;11.15;8.25;;;20.60;99.90;;;;;;5012426;28;20065;-67
2023/06/23 07:41:27;;;;;;;12.27;8.82;;;20.60;99.90;;;;;;5013886;28;20443;-67
2023/06/23 07:44:14;;;;;;;9.27;7.85;;;20.50;99.90;;;;;;5018755;28;20148;-66
2023/06/23 07:47:00;;;;;;;10.73;7.53;;;20.50;99.90;;;;;;5018686;28;20045;-66
2023/06/23 07:49:46;;;;;;;10.85;7.82;;;20.50;99.90;;;;;;5016094;28;20100;-65
2023/06/23 07:52:32;;;;;;;9.23;7.00;;;20.40;99.90;;;;;;5020651;28;20126;-66
2023/06/23 07:55:19;;;;;;;10.38;7.93;;;20.40;99.90;;;;;;5015578;28;20038;-66
2023/06/23 07:58:05;;;;;;;10.30;7.78;;;20.40;99.90;;;;;;5031356;28;20069;-66
2023/06/23 08:00:53;;;;;;;10.13;7.43;;;20.30;99.90;;;;;;5025121;28;20120;-67
2023/06/23 08:03:39;;;;;;;12.52;8.43;;;20.30;99.90;;;;;;5011284;28;20046;-67
2023/06/23 08:06:25;;;;;;;9.13;6.57;;;20.30;99.90;;;;;;5019665;28;20040;-68
2023/06/23 08:09:11;;;;;;;12.15;7.65;;;20.30;99.90;;;;;;5014558;28;20510;-67
2023/06/23 08:11:57;;;;;;;10.93;7.75;;;20.30;99.90;;;;;;5018729;28;20436;-68
2023/06/23 08:14:42;;;;;;;10.95;6.97;;;20.30;99.90;;;;;;5023628;28;20037;-67
2023/06/23 08:17:28;;;;;;;9.73;7.65;;;20.20;99.90;;;;;;5025309;28;20048;-67
2023/06/23 08:20:14;;;;;;;10.77;7.93;;;20.20;99.90;;;;;;5013977;28;20131;-67
2023/06/23 08:23:01;;;;;;;7.78;6.60;;;20.20;99.90;;;;;;5015682;28;20057;-68
2023/06/23 08:25:47;;;;;;;8.10;6.80;;;20.20;99.90;;;;;;5016844;28;20381;-67
2023/06/23 08:28:33;;;;;;;8.98;6.40;;;20.20;99.90;;;;;;5018185;28;20079;-67
2023/06/23 08:31:19;;;;;;;13.07;7.63;;;20.20;99.90;;;;;;5017479;28;20420;-67
2023/06/23 08:34:05;;;;;;;10.68;6.72;;;20.20;99.90;;;;;;5018272;28;20116;-66
2023/06/23 08:36:50;;;;;;;9.02;7.05;;;20.20;99.90;;;;;;5020973;28;20593;-67
2023/06/23 08:39:36;;;;;;;7.60;5.57;;;20.20;99.90;;;;;;5022144;28;20505;-69
2023/06/23 08:42:24;;;;;;;8.27;6.60;;;20.10;99.90;;;;;;5010137;28;20046;-66
2023/06/23 08:45:11;;;;;;;11.52;6.38;;;20.10;99.90;;;;;;5023129;28;20474;-67
2023/06/23 08:48:00;;;;;;;9.90;6.75;;;20.10;99.90;;;;;;5010342;28;20055;-67
2023/06/23 08:50:46;;;;;;;9.98;7.22;;;20.10;99.90;;;;;;5013235;28;20034;-67
2023/06/23 08:53:33;;;;;;;7.97;5.95;;;20.10;99.90;;;;;;5016090;28;20104;-67
2023/06/23 08:56:19;;;;;;;9.57;6.60;;;20.10;99.90;;;;;;5021112;28;20044;-66
2023/06/23 08:59:05;;;;;;;8.18;5.80;;;20.00;99.90;;;;;;5015405;28;20129;-66
2023/06/23 09:01:51;;;;;;;9.18;5.93;;;20.00;99.90;;;;;;5013702;28;20486;-66
2023/06/23 09:04:39;;;;;;;7.78;6.20;;;20.00;99.90;;;;;;5010591;28;20553;-66
2023/06/23 09:07:26;;;;;;;9.77;6.20;;;19.90;99.90;;;;;;5028591;28;20443;-66
2023/06/23 09:10:12;;;;;;;7.75;6.43;;;19.90;99.90;;;;;;5011569;28;20041;-65
2023/06/23 09:13:07;;;;;;;7.75;5.97;;;19.90;99.90;;;;;;5022015;28;20029;-66
2023/06/23 09:15:57;;;;;;;10.48;7.43;;;19.90;99.90;;;;;;5016936;28;20037;-66
2023/06/23 09:18:46;;;;;;;9.55;7.07;;;19.90;99.90;;;;;;5026604;28;20101;-66
2023/06/23 09:21:35;;;;;;;12.30;6.85;;;19.80;99.90;;;;;;5018384;28;20116;-66
2023/06/23 09:24:21;;;;;;;8.80;6.97;;;19.90;99.90;;;;;;5010500;28;20042;-66
2023/06/23 09:27:07;;;;;;;9.63;7.68;;;19.90;99.90;;;;;;5021141;28;20064;-66
2023/06/23 09:30:03;;;;;;;10.57;8.10;;;19.90;99.90;;;;;;5013900;28;20077;-66
2023/06/23 09:32:50;;;;;;;12.40;8.90;;;19.90;99.90;;;;;;5018697;28;20494;-65
2023/06/23 09:35:36;;;;;;;11.07;9.05;;;19.80;99.90;;;;;;5027056;28;20029;-66
2023/06/23 09:38:26;;;;;;;11.38;9.05;;;19.80;99.90;;;;;;5013911;28;20034;-66
2023/06/23 09:41:14;;;;;;;13.35;9.75;;;19.80;99.90;;;;;;5027053;28;20037;-67
2023/06/23 09:44:00;;;;;;;14.70;10.02;;;19.80;99.90;;;;;;5021979;28;20046;-66
2023/06/23 09:46:46;;;;;;;17.10;11.60;;;19.70;99.90;;;;;;5015313;28;20030;-66
2023/06/23 09:49:43;;;;;;;17.73;13.10;;;19.70;99.90;;;;;;5009960;28;20124;-66
2023/06/23 09:52:29;;;;;;;15.18;12.38;;;19.60;99.90;;;;;;5022042;28;20064;-66
2023/06/23 09:55:17;;;;;;;15.98;12.68;;;19.50;99.90;;;;;;5011018;28;20059;-66
2023/06/23 09:58:03;;;;;;;16.23;12.15;;;19.50;99.90;;;;;;5009819;28;20034;-67
2023/06/23 10:01:01;;;;;;;19.75;15.75;;;19.40;99.90;;;;;;5016471;28;20107;-66
2023/06/23 10:03:52;;;;;;;17.38;14.38;;;19.40;99.90;;;;;;5018689;28;20149;-66
2023/06/23 10:06:39;;;;;;;20.85;16.77;;;19.20;99.90;;;;;;5018123;28;20037;-67
2023/06/23 10:09:25;;;;;;;18.33;13.98;;;19.20;99.90;;;;;;5020951;28;20041;-67
2023/06/23 10:12:11;;;;;;;21.25;16.38;;;19.10;99.90;;;;;;5014357;28;20041;-66
2023/06/23 10:14:58;;;;;;;23.75;15.57;;;19.00;99.90;;;;;;5023052;28;20045;-67
2023/06/23 10:17:44;;;;;;;20.17;16.23;;;18.90;99.90;;;;;;5010135;28;20033;-67
2023/06/23 10:20:30;;;;;;;22.77;16.30;;;18.90;99.90;;;;;;5021364;28;20034;-66
2023/06/23 10:23:17;;;;;;;22.23;16.48;;;18.90;99.90;;;;;;5025685;28;20454;-66
2023/06/23 10:26:04;;;;;;;27.40;21.00;;;18.90;99.90;;;;;;5015401;28;20167;-66
2023/06/23 10:28:53;;;;;;;22.25;15.48;;;18.80;99.90;;;;;;5023589;28;20120;-66
2023/06/23 10:31:41;;;;;;;22.02;16.17;;;18.90;99.90;;;;;;5011266;28;20045;-66
2023/06/23 10:34:28;;;;;;;17.25;13.20;;;18.90;99.90;;;;;;5009072;28;20030;-66
2023/06/23 10:37:15;;;;;;;14.52;11.93;;;18.90;99.90;;;;;;5015664;28;20456;-69
2023/06/23 10:40:04;;;;;;;13.85;10.85;;;19.00;99.90;;;;;;5014664;28;20422;-66
2023/06/23 10:42:54;;;;;;;15.32;9.93;;;19.00;99.90;;;;;;5010957;28;20034;-68
2023/06/23 10:45:40;;;;;;;11.55;9.23;;;19.10;99.90;;;;;;5009142;28;20036;-67
2023/06/23 10:48:27;;;;;;;11.73;8.90;;;19.00;99.90;;;;;;5009279;28;20479;-67
2023/06/23 10:51:13;;;;;;;11.75;7.70;;;19.10;99.90;;;;;;5015287;28;20033;-67
2023/06/23 10:54:05;;;;;;;11.60;9.05;;;19.00;99.90;;;;;;5012043;28;20498;-67
2023/06/23 10:56:52;;;;;;;11.88;7.75;;;19.00;99.90;;;;;;5008615;28;20463;-66
2023/06/23 10:59:58;;;;;;;11.10;7.80;;;19.00;99.90;;;;;;5008431;28;20390;-66
2023/06/23 11:02:52;;;;;;;10.23;7.75;;;19.10;99.90;;;;;;5012564;28;20101;-66
2023/06/23 11:05:42;;;;;;;10.15;7.45;;;19.00;99.90;;;;;;5010736;28;20466;-66
2023/06/23 11:08:31;;;;;;;10.43;6.95;;;19.00;99.90;;;;;;5027596;28;20056;-65
2023/06/23 11:11:29;;;;;;;8.90;6.45;;;19.00;99.90;;;;;;5021503;28;20486;-66
2023/06/23 11:14:17;;;;;;;9.27;6.97;;;19.10;99.90;;;;;;5031205;28;20037;-66
2023/06/23 11:17:03;;;;;;;9.63;6.93;;;19.00;99.90;;;;;;5029205;28;20095;-66
2023/06/23 11:19:52;;;;;;;10.45;7.28;;;19.10;99.90;;;;;;5021112;28;20038;-67
2023/06/23 11:22:40;;;;;;;9.77;7.43;;;19.10;99.90;;;;;;5016346;28;20049;-66
2023/06/23 11:25:33;;;;;;;9.43;5.80;;;19.10;99.90;;;;;;5015661;28;20029;-67
2023/06/23 11:28:34;;;;;;;8.80;6.78;;;19.10;99.90;;;;;;5023697;28;21999;-67
2023/06/23 11:31:26;;;;;;;9.65;7.10;;;19.10;99.90;;;;;;5026868;28;20485;-67
2023/06/23 11:34:12;;;;;;;7.80;5.88;;;19.10;99.90;;;;;;5013864;28;20030;-67
2023/06/23 11:36:58;;;;;;;9.60;5.93;;;19.10;99.90;;;;;;5025132;28;20037;-66
2023/06/23 11:39:44;;;;;;;8.65;6.15;;;19.10;99.90;;;;;;5021429;28;20026;-66
2023/06/23 11:42:30;;;;;;;7.80;5.68;;;19.10;99.90;;;;;;5012212;28;20049;-66
2023/06/23 11:45:16;;;;;;;11.35;6.10;;;19.10;99.90;;;;;;5022559;28;20067;-66
2023/06/23 11:48:02;;;;;;;7.95;5.75;;;19.10;99.90;;;;;;5012685;28;20521;-66
2023/06/23 11:50:48;;;;;;;10.90;6.07;;;19.00;99.90;;;;;;5013645;28;20026;-66
2023/06/23 11:53:36;;;;;;;8.35;5.78;;;19.00;99.90;;;;;;5024959;28;20127;-66
2023/06/23 11:56:22;;;;;;;7.50;5.43;;;19.10;99.90;;;;;;5018518;28;20034;-66
2023/06/23 11:59:10;;;;;;;8.52;5.53;;;19.00;99.90;;;;;;5012714;28;20052;-66
2023/06/23 12:01:59;;;;;;;12.73;6.90;;;19.00;99.90;;;;;;5025570;28;20116;-66
2023/06/23 12:04:48;;;;;;;9.10;6.35;;;19.00;99.90;;;;;;5021613;28;20044;-66
2023/06/23 12:07:34;;;;;;;8.68;6.18;;;18.90;99.90;;;;;;5011990;28;20588;-66
2023/06/23 12:10:20;;;;;;;11.15;6.68;;;18.90;99.90;;;;;;5014935;28;20049;-66
2023/06/23 12:13:10;;;;;;;8.60;6.72;;;18.90;99.90;;;;;;5023184;28;20045;-67
2023/06/23 12:15:56;;;;;;;8.50;6.65;;;18.90;99.90;;;;;;5013742;28;20490;-67
2023/06/23 12:18:50;;;;;;;9.43;7.55;;;18.90;99.90;;;;;;5027048;28;20064;-67
2023/06/23 12:21:40;;;;;;;13.75;8.40;;;18.90;99.90;;;;;;5018490;28;20049;-66
2023/06/23 12:24:28;;;;;;;10.10;8.18;;;18.90;99.90;;;;;;5018909;28;20041;-66
2023/06/23 12:27:14;;;;;;;10.60;7.82;;;18.90;99.90;;;;;;5029859;28;20048;-66
2023/06/23 12:30:19;;;;;;;10.27;7.90;;;18.80;99.90;;;;;;5030739;28;20387;-66
2023/06/23 12:33:11;;;;;;;9.57;7.60;;;18.80;99.90;;;;;;5012146;28;20121;-66
2023/06/23 12:35:59;;;;;;;10.05;7.38;;;18.80;99.90;;;;;;5018556;28;20029;-66
2023/06/23 12:38:52;;;;;;;8.80;6.90;;;18.70;99.90;;;;;;5021872;28;20507;-66
2023/06/23 12:41:40;;;;;;;9.80;6.53;;;18.70;99.90;;;;;;5024382;28;20548;-66
2023/06/23 12:44:27;;;;;;;10.50;6.85;;;18.60;99.90;;;;;;5017938;28;20157;-67
2023/06/23 12:47:13;;;;;;;8.95;6.05;;;18.60;99.90;;;;;;5028102;28;20037;-68
2023/06/23 12:50:06;;;;;;;9.02;5.82;;;18.50;99.90;;;;;;5031815;28;20045;-67
2023/06/23 12:52:52;;;;;;;4.78;3.42;;;18.50;99.90;;;;;;5016609;28;20502;-68
2023/06/23 12:55:38;;;;;;;5.93;4.22;;;18.40;99.90;;;;;;5011947;28;20045;-69
2023/06/23 12:58:24;;;;;;;4.13;2.67;;;18.30;99.90;;;;;;5018082;28;20475;-68
2023/06/23 13:01:10;;;;;;;5.18;3.17;;;18.20;99.90;;;;;;5012320;28;20061;-68
2023/06/23 13:03:56;;;;;;;3.97;2.72;;;18.10;99.90;;;;;;5017805;28;20048;-67
2023/06/23 13:06:42;;;;;;;3.60;2.60;;;18.00;99.90;;;;;;5022887;28;20124;-68
2023/06/23 13:09:28;;;;;;;5.38;2.85;;;17.90;99.90;;;;;;5015957;28;20026;-68
2023/06/23 13:12:14;;;;;;;4.00;2.47;;;17.90;99.90;;;;;;5022506;28;20422;-68
2023/06/23 13:15:00;;;;;;;3.92;2.60;;;17.80;99.90;;;;;;5025317;28;20041;-67
2023/06/23 13:17:46;;;;;;;4.25;2.50;;;17.70;99.90;;;;;;5022969;28;20033;-68
2023/06/23 13:20:32;;;;;;;3.80;2.28;;;17.70;99.90;;;;;;5018213;28;20422;-68
2023/06/23 13:23:18;;;;;;;3.88;2.40;;;17.60;99.90;;;;;;5022367;28;20042;-67
2023/06/23 13:26:04;;;;;;;5.00;3.08;;;17.60;99.90;;;;;;5022314;28;20092;-69
2023/06/23 13:28:53;;;;;;;3.80;2.67;;;17.50;99.90;;;;;;5026701;28;20041;-69
2023/06/23 13:31:39;;;;;;;5.65;2.28;;;17.50;99.90;;;;;;5016232;28;20061;-67
2023/06/23 13:34:25;;;;;;;4.35;2.40;;;17.50;99.90;;;;;;5011896;28;20613;-69
2023/06/23 13:37:11;;;;;;;3.90;2.33;;;17.40;99.90;;;;;;5023392;28;20029;-69
2023/06/23 13:39:57;;;;;;;3.38;2.13;;;17.40;99.90;;;;;;5011071;28;20068;-69
2023/06/23 13:42:44;;;;;;;3.53;2.13;;;17.40;99.90;;;;;;5021848;28;20386;-71
2023/06/23 13:45:30;;;;;;;4.78;2.15;;;17.30;99.90;;;;;;5024669;28;20538;-68
2023/06/23 13:48:18;;;;;;;3.50;2.13;;;17.40;99.90;;;;;;5024461;28;20041;-70
2023/06/23 13:51:04;;;;;;;2.88;1.75;;;17.40;99.90;;;;;;5016465;28;20041;-68
2023/06/23 13:53:50;;;;;;;2.28;1.55;;;17.40;99.90;;;;;;5013841;28;20640;-68
2023/06/23 13:56:36;;;;;;;3.22;1.63;;;17.40;99.90;;;;;;5012412;28;20375;-68
2023/06/23 13:59:22;;;;;;;2.55;1.48;;;17.50;99.90;;;;;;5019833;28;20037;-68
2023/06/23 14:02:08;;;;;;;2.17;1.20;;;17.50;99.90;;;;;;5023216;28;20036;-69
2023/06/23 14:04:54;;;;;;;3.28;1.92;;;17.60;99.90;;;;;;5016078;28;20037;-67
2023/06/23 14:07:40;;;;;;;2.05;1.27;;;17.60;99.90;;;;;;5026363;28;20076;-67
2023/06/23 14:10:26;;;;;;;3.03;1.63;;;17.70;99.90;;;;;;5014989;28;20060;-67
2023/06/23 14:13:14;;;;;;;3.97;2.17;;;17.70;99.90;;;;;;5019023;28;20052;-66
2023/06/23 14:16:00;;;;;;;4.20;2.63;;;17.70;99.90;;;;;;5018704;28;20038;-66
2023/06/23 14:18:47;;;;;;;3.60;2.28;;;17.70;99.90;;;;;;5021650;28;20052;-67
2023/06/23 14:21:33;;;;;;;3.03;1.95;;;17.60;99.90;;;;;;5023001;28;20099;-67
2023/06/23 14:24:20;;;;;;;3.67;1.90;;;17.50;99.90;;;;;;5020683;28;20042;-67
2023/06/23 14:27:06;;;;;;;4.35;2.17;;;17.50;99.90;;;;;;5019657;28;20033;-67
2023/06/23 14:29:52;;;;;;;2.67;2.00;;;17.40;99.90;;;;;;5010201;28;20025;-68
2023/06/23 14:32:38;;;;;;;3.28;2.50;;;17.30;99.90;;;;;;5019677;28;20041;-66